Terminal Aerodrome Forecast
Issued by NWS

Home | Current Version | Previous Version | Text Only | Print | Product List | Glossary On
Versions: 1 2 3 4 5 6 7 8 9 10 11 12 13 14 15 16 17 18 19 20 21 22 23 24 25 26 27 28 29 30 31 32 33 34
000
FTUS43 KDMX 290520
TAFFOD
TAF
KFOD 290520Z 2906/3006 19008KT P6SM SCT025 BKN035
     FM291700 21009KT P6SM SHRA OVC040
     FM292300 33014KT P6SM VCSH SCT025 BKN035
     FM300100 35010KT P6SM SCT035 BKN050=

USA.gov is the U.S. government's official web portal to all federal, state and local government web resources and services.